sensor_id;sensor_type;location;lat;lon;timestamp;pressure;altitude;pressure_sealevel;temperature;humidity
35704;BME280;21820;51.112;13.762;2023-03-26T00:01:27;98340.66;;;21.61;61.24
35704;BME280;21820;51.112;13.762;2023-03-26T00:03:54;98341.75;;;21.67;61.71
35704;BME280;21820;51.112;13.762;2023-03-26T00:06:20;98316.97;;;21.55;61.79
35704;BME280;21820;51.112;13.762;2023-03-26T00:08:49;98346.66;;;21.70;62.16
35704;BME280;21820;51.112;13.762;2023-03-26T00:11:17;98347.75;;;21.75;62.63
35704;BME280;21820;51.112;13.762;2023-03-26T00:13:43;98355.28;;;21.78;61.73
35704;BME280;21820;51.112;13.762;2023-03-26T00:16:12;98360.34;;;21.80;61.98
35704;BME280;21820;51.112;13.762;2023-03-26T00:18:38;98358.22;;;21.83;62.22
35704;BME280;21820;51.112;13.762;2023-03-26T00:21:05;98352.66;;;21.86;61.70
35704;BME280;21820;51.112;13.762;2023-03-26T00:23:34;98357.75;;;21.80;61.61
35704;BME280;21820;51.112;13.762;2023-03-26T00:26:01;98348.63;;;21.68;61.07
35704;BME280;21820;51.112;13.762;2023-03-26T00:28:35;98363.31;;;21.77;61.54
35704;BME280;21820;51.112;13.762;2023-03-26T00:31:03;98363.81;;;21.72;62.43
35704;BME280;21820;51.112;13.762;2023-03-26T00:33:29;98347.31;;;21.64;62.25
35704;BME280;21820;51.112;13.762;2023-03-26T00:35:57;98369.03;;;21.80;61.41
35704;BME280;21820;51.112;13.762;2023-03-26T00:38:25;98367.41;;;21.79;61.69
35704;BME280;21820;51.112;13.762;2023-03-26T00:40:51;98358.56;;;21.80;61.71
35704;BME280;21820;51.112;13.762;2023-03-26T00:43:18;98360.22;;;21.81;61.82
35704;BME280;21820;51.112;13.762;2023-03-26T00:45:48;98368.69;;;21.83;61.53
35704;BME280;21820;51.112;13.762;2023-03-26T00:48:14;98361.31;;;21.87;61.45
35704;BME280;21820;51.112;13.762;2023-03-26T00:50:40;98363.44;;;21.83;61.69
35704;BME280;21820;51.112;13.762;2023-03-26T00:53:07;98363.13;;;21.86;61.25
35704;BME280;21820;51.112;13.762;2023-03-26T00:55:34;98361.97;;;21.89;61.06
35704;BME280;21820;51.112;13.762;2023-03-26T00:58:00;98354.94;;;21.89;61.38
35704;BME280;21820;51.112;13.762;2023-03-26T01:00:30;98366.03;;;21.91;61.58
35704;BME280;21820;51.112;13.762;2023-03-26T01:03:02;98370.13;;;21.94;61.19
35704;BME280;21820;51.112;13.762;2023-03-26T01:08:02;98352.44;;;21.96;60.95
35704;BME280;21820;51.112;13.762;2023-03-26T01:10:29;98352.28;;;21.98;60.84
35704;BME280;21820;51.112;13.762;2023-03-26T01:13:03;98360.59;;;22.01;61.40
35704;BME280;21820;51.112;13.762;2023-03-26T01:15:29;98359.44;;;22.04;60.85
35704;BME280;21820;51.112;13.762;2023-03-26T01:17:55;98363.03;;;22.03;61.02
35704;BME280;21820;51.112;13.762;2023-03-26T01:20:22;98360.47;;;21.94;61.18
35704;BME280;21820;51.112;13.762;2023-03-26T01:22:51;98364.41;;;21.90;60.79
35704;BME280;21820;51.112;13.762;2023-03-26T01:25:22;98369.97;;;21.87;60.85
35704;BME280;21820;51.112;13.762;2023-03-26T01:27:53;98370.34;;;21.84;60.96
35704;BME280;21820;51.112;13.762;2023-03-26T01:32:49;98359.22;;;21.74;61.40
35704;BME280;21820;51.112;13.762;2023-03-26T01:35:19;98364.47;;;21.74;61.31
35704;BME280;21820;51.112;13.762;2023-03-26T01:40:36;98363.00;;;21.64;61.78
35704;BME280;21820;51.112;13.762;2023-03-26T01:43:20;98369.06;;;21.64;62.11
35704;BME280;21820;51.112;13.762;2023-03-26T01:45:49;98361.88;;;21.66;62.06
35704;BME280;21820;51.112;13.762;2023-03-26T01:48:15;98358.59;;;21.64;61.13
35704;BME280;21820;51.112;13.762;2023-03-26T01:50:41;98359.88;;;21.68;61.81
35704;BME280;21820;51.112;13.762;2023-03-26T01:53:08;98347.84;;;21.59;61.38
35704;BME280;21820;51.112;13.762;2023-03-26T02:00:32;98357.13;;;21.62;61.49
35704;BME280;21820;51.112;13.762;2023-03-26T02:10:26;98359.91;;;21.60;61.81
35704;BME280;21820;51.112;13.762;2023-03-26T02:12:54;98352.41;;;21.57;61.51
35704;BME280;21820;51.112;13.762;2023-03-26T02:15:21;98356.81;;;21.57;61.31
35704;BME280;21820;51.112;13.762;2023-03-26T02:17:46;98360.91;;;21.59;62.32
35704;BME280;21820;51.112;13.762;2023-03-26T02:20:16;98354.38;;;21.55;61.70
35704;BME280;21820;51.112;13.762;2023-03-26T02:22:43;98361.59;;;21.53;61.31
35704;BME280;21820;51.112;13.762;2023-03-26T02:25:11;98359.00;;;21.53;62.37
35704;BME280;21820;51.112;13.762;2023-03-26T02:27:40;98352.41;;;21.57;62.15
35704;BME280;21820;51.112;13.762;2023-03-26T02:30:07;98347.53;;;21.54;62.03
35704;BME280;21820;51.112;13.762;2023-03-26T02:32:33;98360.78;;;21.53;62.73
35704;BME280;21820;51.112;13.762;2023-03-26T02:35:00;98352.28;;;21.51;61.79
35704;BME280;21820;51.112;13.762;2023-03-26T02:37:26;98329.91;;;21.40;62.08
35704;BME280;21820;51.112;13.762;2023-03-26T02:39:51;98347.06;;;21.51;61.71
35704;BME280;21820;51.112;13.762;2023-03-26T02:42:17;98356.03;;;21.56;61.61
35704;BME280;21820;51.112;13.762;2023-03-26T02:44:43;98334.34;;;21.40;62.81
35704;BME280;21820;51.112;13.762;2023-03-26T02:47:09;98356.53;;;21.52;61.95
35704;BME280;21820;51.112;13.762;2023-03-26T02:49:34;98340.38;;;21.40;62.34
35704;BME280;21820;51.112;13.762;2023-03-26T02:52:00;98349.97;;;21.56;62.38
35704;BME280;21820;51.112;13.762;2023-03-26T02:54:31;98342.03;;;21.41;62.58
35704;BME280;21820;51.112;13.762;2023-03-26T02:56:57;98359.13;;;21.52;62.26
35704;BME280;21820;51.112;13.762;2023-03-26T02:59:23;98366.50;;;21.56;62.12
35704;BME280;21820;51.112;13.762;2023-03-26T03:01:48;98339.59;;;21.40;62.19
35704;BME280;21820;51.112;13.762;2023-03-26T03:04:14;98362.25;;;21.47;62.12
35704;BME280;21820;51.112;13.762;2023-03-26T03:06:42;98357.69;;;21.49;61.92
35704;BME280;21820;51.112;13.762;2023-03-26T03:09:09;98354.06;;;21.50;62.45
35704;BME280;21820;51.112;13.762;2023-03-26T03:11:35;98358.16;;;21.53;61.97
35704;BME280;21820;51.112;13.762;2023-03-26T03:14:01;98354.72;;;21.52;62.50
35704;BME280;21820;51.112;13.762;2023-03-26T03:16:27;98356.84;;;21.49;61.66
35704;BME280;21820;51.112;13.762;2023-03-26T03:18:52;98357.84;;;21.48;61.36
35704;BME280;21820;51.112;13.762;2023-03-26T03:21:21;98352.13;;;21.52;61.88
35704;BME280;21820;51.112;13.762;2023-03-26T03:23:47;98353.91;;;21.52;62.60
35704;BME280;21820;51.112;13.762;2023-03-26T03:26:13;98354.72;;;21.52;62.57
35704;BME280;21820;51.112;13.762;2023-03-26T03:28:40;98356.38;;;21.53;62.46
35704;BME280;21820;51.112;13.762;2023-03-26T03:31:06;98335.97;;;21.41;61.57
35704;BME280;21820;51.112;13.762;2023-03-26T03:33:33;98353.75;;;21.53;62.21
35704;BME280;21820;51.112;13.762;2023-03-26T03:36:00;98345.91;;;21.45;61.93
35704;BME280;21820;51.112;13.762;2023-03-26T03:38:26;98344.34;;;21.36;61.68
35704;BME280;21820;51.112;13.762;2023-03-26T03:40:52;98342.72;;;21.35;60.42
35704;BME280;21820;51.112;13.762;2023-03-26T03:43:22;98334.19;;;21.41;60.28
35704;BME280;21820;51.112;13.762;2023-03-26T03:45:48;98343.88;;;21.71;58.92
35704;BME280;21820;51.112;13.762;2023-03-26T03:48:14;98340.31;;;21.95;58.55
35704;BME280;21820;51.112;13.762;2023-03-26T03:50:42;98343.28;;;22.23;57.43
35704;BME280;21820;51.112;13.762;2023-03-26T03:53:10;98343.81;;;22.41;57.16
35704;BME280;21820;51.112;13.762;2023-03-26T03:55:40;98345.63;;;22.63;55.88
35704;BME280;21820;51.112;13.762;2023-03-26T03:58:07;98341.50;;;22.83;55.46
35704;BME280;21820;51.112;13.762;2023-03-26T04:00:34;98330.34;;;22.89;55.66
35704;BME280;21820;51.112;13.762;2023-03-26T04:03:03;98341.47;;;23.05;55.12
35704;BME280;21820;51.112;13.762;2023-03-26T04:05:31;98331.69;;;22.99;54.58
35704;BME280;21820;51.112;13.762;2023-03-26T04:07:57;98346.81;;;23.12;55.42
35704;BME280;21820;51.112;13.762;2023-03-26T04:10:24;98322.84;;;23.00;54.65
35704;BME280;21820;51.112;13.762;2023-03-26T04:12:53;98341.13;;;23.08;55.45
35704;BME280;21820;51.112;13.762;2023-03-26T04:15:19;98345.25;;;23.17;54.52
35704;BME280;21820;51.112;13.762;2023-03-26T04:17:45;98337.22;;;23.19;54.70
35704;BME280;21820;51.112;13.762;2023-03-26T04:20:11;98347.53;;;23.20;54.63
35704;BME280;21820;51.112;13.762;2023-03-26T04:22:40;98340.84;;;23.18;54.88
35704;BME280;21820;51.112;13.762;2023-03-26T04:25:07;98330.81;;;23.21;54.52
35704;BME280;21820;51.112;13.762;2023-03-26T04:27:33;98335.63;;;23.33;54.14
35704;BME280;21820;51.112;13.762;2023-03-26T04:30:04;98335.63;;;23.47;54.15
35704;BME280;21820;51.112;13.762;2023-03-26T04:32:30;98340.94;;;23.54;54.21
35704;BME280;21820;51.112;13.762;2023-03-26T04:35:03;98337.44;;;23.61;53.63
35704;BME280;21820;51.112;13.762;2023-03-26T04:37:34;98330.19;;;23.63;53.14
35704;BME280;21820;51.112;13.762;2023-03-26T04:40:04;98329.28;;;23.56;53.41
35704;BME280;21820;51.112;13.762;2023-03-26T04:42:33;98327.16;;;23.45;53.90
35704;BME280;21820;51.112;13.762;2023-03-26T04:44:59;98324.94;;;23.34;54.57
35704;BME280;21820;51.112;13.762;2023-03-26T04:47:27;98327.38;;;23.21;54.74
35704;BME280;21820;51.112;13.762;2023-03-26T04:49:53;98321.56;;;23.11;54.68
35704;BME280;21820;51.112;13.762;2023-03-26T04:52:19;98292.38;;;22.85;54.89
35704;BME280;21820;51.112;13.762;2023-03-26T04:54:45;98325.59;;;22.84;55.95
35704;BME280;21820;51.112;13.762;2023-03-26T04:57:13;98327.84;;;22.73;55.85
35704;BME280;21820;51.112;13.762;2023-03-26T04:59:41;98328.00;;;22.57;56.06
35704;BME280;21820;51.112;13.762;2023-03-26T05:02:07;98323.16;;;22.46;57.14
35704;BME280;21820;51.112;13.762;2023-03-26T05:04:33;98324.19;;;22.37;57.25
35704;BME280;21820;51.112;13.762;2023-03-26T05:07:01;98336.06;;;22.25;57.52
35704;BME280;21820;51.112;13.762;2023-03-26T05:09:27;98308.56;;;22.06;57.42
35704;BME280;21820;51.112;13.762;2023-03-26T05:11:53;98326.53;;;22.09;57.48
35704;BME280;21820;51.112;13.762;2023-03-26T05:14:21;98321.84;;;21.96;57.96
35704;BME280;21820;51.112;13.762;2023-03-26T05:16:47;98329.38;;;21.91;58.49
35704;BME280;21820;51.112;13.762;2023-03-26T05:19:14;98333.81;;;21.91;58.95
35704;BME280;21820;51.112;13.762;2023-03-26T05:21:40;98311.13;;;21.83;58.15
35704;BME280;21820;51.112;13.762;2023-03-26T05:24:06;98335.03;;;22.11;58.08
35704;BME280;21820;51.112;13.762;2023-03-26T05:26:34;98332.75;;;22.31;57.71
35704;BME280;21820;51.112;13.762;2023-03-26T05:29:01;98337.50;;;22.50;56.87
35704;BME280;21820;51.112;13.762;2023-03-26T05:31:27;98334.34;;;22.62;56.22
35704;BME280;21820;51.112;13.762;2023-03-26T05:33:56;98325.50;;;22.78;56.00
35704;BME280;21820;51.112;13.762;2023-03-26T05:36:22;98339.91;;;22.82;56.21
35704;BME280;21820;51.112;13.762;2023-03-26T05:38:48;98344.31;;;22.81;56.21
35704;BME280;21820;51.112;13.762;2023-03-26T05:41:14;98340.94;;;22.73;56.49
35704;BME280;21820;51.112;13.762;2023-03-26T05:43:41;98340.06;;;22.66;56.55
35704;BME280;21820;51.112;13.762;2023-03-26T05:46:08;98351.22;;;22.60;56.27
35704;BME280;21820;51.112;13.762;2023-03-26T05:48:34;98345.88;;;22.53;56.74
35704;BME280;21820;51.112;13.762;2023-03-26T05:51:00;98334.03;;;22.35;56.58
35704;BME280;21820;51.112;13.762;2023-03-26T05:53:26;98345.97;;;22.37;56.83
35704;BME280;21820;51.112;13.762;2023-03-26T05:55:52;98336.88;;;22.25;57.21
35704;BME280;21820;51.112;13.762;2023-03-26T05:58:28;98353.13;;;22.21;57.63
35704;BME280;21820;51.112;13.762;2023-03-26T06:01:03;98348.72;;;22.13;57.72
35704;BME280;21820;51.112;13.762;2023-03-26T06:03:32;98346.69;;;22.01;57.87
35704;BME280;21820;51.112;13.762;2023-03-26T06:05:58;98352.44;;;21.96;58.00
35704;BME280;21820;51.112;13.762;2023-03-26T06:08:25;98351.66;;;21.87;58.45
35704;BME280;21820;51.112;13.762;2023-03-26T06:11:02;98354.28;;;21.87;58.67
35704;BME280;21820;51.112;13.762;2023-03-26T06:13:28;98351.31;;;21.90;58.95
35704;BME280;21820;51.112;13.762;2023-03-26T06:15:54;98348.00;;;22.05;58.71
35704;BME280;21820;51.112;13.762;2023-03-26T06:18:20;98347.69;;;22.22;57.73
35704;BME280;21820;51.112;13.762;2023-03-26T06:20:49;98351.66;;;22.41;57.75
35704;BME280;21820;51.112;13.762;2023-03-26T06:23:15;98348.78;;;22.58;57.21
35704;BME280;21820;51.112;13.762;2023-03-26T06:25:41;98354.69;;;22.75;56.56
35704;BME280;21820;51.112;13.762;2023-03-26T06:28:08;98335.34;;;22.76;56.05
35704;BME280;21820;51.112;13.762;2023-03-26T06:30:34;98346.13;;;22.81;56.26
35704;BME280;21820;51.112;13.762;2023-03-26T06:33:00;98320.72;;;22.67;55.62
35704;BME280;21820;51.112;13.762;2023-03-26T06:35:26;98337.34;;;22.74;56.17
35704;BME280;21820;51.112;13.762;2023-03-26T06:37:54;98337.94;;;22.61;56.96
35704;BME280;21820;51.112;13.762;2023-03-26T06:40:20;98338.16;;;22.52;56.43
35704;BME280;21820;51.112;13.762;2023-03-26T06:42:46;98339.47;;;22.48;56.60
35704;BME280;21820;51.112;13.762;2023-03-26T06:45:21;98319.19;;;22.27;57.50
35704;BME280;21820;51.112;13.762;2023-03-26T06:47:47;98329.56;;;22.21;57.71
35704;BME280;21820;51.112;13.762;2023-03-26T06:50:12;98333.13;;;22.20;57.63
35704;BME280;21820;51.112;13.762;2023-03-26T06:52:38;98332.69;;;22.16;57.48
35704;BME280;21820;51.112;13.762;2023-03-26T06:55:05;98338.97;;;22.07;58.02
35704;BME280;21820;51.112;13.762;2023-03-26T06:57:32;98312.41;;;21.87;58.02
35704;BME280;21820;51.112;13.762;2023-03-26T06:59:59;98335.91;;;21.95;58.29
35704;BME280;21820;51.112;13.762;2023-03-26T07:02:25;98339.59;;;21.86;58.78
35704;BME280;21820;51.112;13.762;2023-03-26T07:04:50;98346.97;;;21.83;58.42
35704;BME280;21820;51.112;13.762;2023-03-26T07:07:16;98340.25;;;21.80;59.19
35704;BME280;21820;51.112;13.762;2023-03-26T07:09:44;98312.47;;;21.71;59.35
35704;BME280;21820;51.112;13.762;2023-03-26T07:12:10;98331.69;;;21.94;58.83
35704;BME280;21820;51.112;13.762;2023-03-26T07:14:36;98328.31;;;22.09;58.42
35704;BME280;21820;51.112;13.762;2023-03-26T07:17:03;98331.28;;;22.28;57.53
35704;BME280;21820;51.112;13.762;2023-03-26T07:19:28;98306.84;;;22.36;57.47
35704;BME280;21820;51.112;13.762;2023-03-26T07:21:55;98332.53;;;22.63;56.68
35704;BME280;21820;51.112;13.762;2023-03-26T07:24:21;98327.56;;;22.68;56.17
35704;BME280;21820;51.112;13.762;2023-03-26T07:26:54;98319.88;;;22.66;56.74
35704;BME280;21820;51.112;13.762;2023-03-26T07:29:31;98322.41;;;22.60;56.49
35704;BME280;21820;51.112;13.762;2023-03-26T07:32:01;98318.16;;;22.59;56.53
35704;BME280;21820;51.112;13.762;2023-03-26T07:34:37;98323.75;;;22.48;57.28
35704;BME280;21820;51.112;13.762;2023-03-26T07:40:00;98319.31;;;22.34;56.93
35704;BME280;21820;51.112;13.762;2023-03-26T07:47:26;98318.50;;;22.11;58.26
35704;BME280;21820;51.112;13.762;2023-03-26T07:49:53;98332.91;;;22.07;58.41
35704;BME280;21820;51.112;13.762;2023-03-26T07:52:20;98324.44;;;21.96;58.33
35704;BME280;21820;51.112;13.762;2023-03-26T07:54:46;98329.38;;;21.91;58.42
35704;BME280;21820;51.112;13.762;2023-03-26T07:57:29;98322.88;;;21.87;58.08
35704;BME280;21820;51.112;13.762;2023-03-26T08:00:02;98327.53;;;21.77;58.63
35704;BME280;21820;51.112;13.762;2023-03-26T08:02:38;98327.84;;;21.74;58.84
35704;BME280;21820;51.112;13.762;2023-03-26T08:07:51;98321.47;;;21.69;59.07
35704;BME280;21820;51.112;13.762;2023-03-26T08:10:36;98322.00;;;21.64;59.21
35704;BME280;21820;51.112;13.762;2023-03-26T08:13:27;98318.84;;;21.69;59.22
35704;BME280;21820;51.112;13.762;2023-03-26T08:18:39;98291.50;;;21.87;58.22
35704;BME280;21820;51.112;13.762;2023-03-26T08:21:10;98291.03;;;22.07;57.89
35704;BME280;21820;51.112;13.762;2023-03-26T08:23:57;98308.13;;;22.40;57.38
35704;BME280;21820;51.112;13.762;2023-03-26T08:29:03;98317.44;;;22.65;56.93
35704;BME280;21820;51.112;13.762;2023-03-26T08:31:32;98317.09;;;22.68;56.28
35704;BME280;21820;51.112;13.762;2023-03-26T08:34:02;98316.00;;;22.62;56.81
35704;BME280;21820;51.112;13.762;2023-03-26T08:36:27;98323.56;;;22.57;56.69
35704;BME280;21820;51.112;13.762;2023-03-26T08:38:53;98314.94;;;22.49;56.83
35704;BME280;21820;51.112;13.762;2023-03-26T08:41:25;98292.19;;;22.27;57.02
35704;BME280;21820;51.112;13.762;2023-03-26T08:54:56;98309.03;;;22.02;57.92
35704;BME280;21820;51.112;13.762;2023-03-26T09:11:01;98291.09;;;21.68;59.59
35704;BME280;21820;51.112;13.762;2023-03-26T09:16:16;98282.06;;;21.70;59.71
35704;BME280;21820;51.112;13.762;2023-03-26T09:39:22;98276.63;;;22.56;56.44
35704;BME280;21820;51.112;13.762;2023-03-26T09:42:00;98264.34;;;22.48;57.09
35704;BME280;21820;51.112;13.762;2023-03-26T10:03:27;98248.91;;;21.93;58.67
35704;BME280;21820;51.112;13.762;2023-03-26T10:10:53;98247.41;;;21.76;59.19
35704;BME280;21820;51.112;13.762;2023-03-26T10:13:42;98242.47;;;21.73;59.13
35704;BME280;21820;51.112;13.762;2023-03-26T10:19:05;98231.41;;;21.71;59.87
35704;BME280;21820;51.112;13.762;2023-03-26T10:27:09;98223.53;;;22.17;58.68
35704;BME280;21820;51.112;13.762;2023-03-26T10:34:42;98203.28;;;22.48;56.92
35704;BME280;21820;51.112;13.762;2023-03-26T10:47:25;98186.81;;;22.25;57.69
35704;BME280;21820;51.112;13.762;2023-03-26T10:50:10;98179.03;;;22.17;57.95
35704;BME280;21820;51.112;13.762;2023-03-26T10:55:43;98169.38;;;22.03;58.79
35704;BME280;21820;51.112;13.762;2023-03-26T10:58:24;98167.44;;;21.96;59.13
35704;BME280;21820;51.112;13.762;2023-03-26T11:03:42;98154.16;;;21.83;58.68
35704;BME280;21820;51.112;13.762;2023-03-26T11:09:03;98146.94;;;21.85;58.73
35704;BME280;21820;51.112;13.762;2023-03-26T11:11:35;98150.31;;;21.94;58.64
35704;BME280;21820;51.112;13.762;2023-03-26T11:22:02;98139.47;;;22.49;57.38
35704;BME280;21820;51.112;13.762;2023-03-26T11:24:35;98134.34;;;22.55;56.84
35704;BME280;21820;51.112;13.762;2023-03-26T11:27:06;98139.41;;;22.57;57.00
35704;BME280;21820;51.112;13.762;2023-03-26T11:29:41;98133.53;;;22.55;56.99
35704;BME280;21820;51.112;13.762;2023-03-26T11:32:11;98133.22;;;22.50;57.59
35704;BME280;21820;51.112;13.762;2023-03-26T11:37:05;98129.72;;;22.43;57.49
35704;BME280;21820;51.112;13.762;2023-03-26T11:39:36;98131.44;;;22.36;57.56
35704;BME280;21820;51.112;13.762;2023-03-26T11:42:06;98123.03;;;22.26;57.52
35704;BME280;21820;51.112;13.762;2023-03-26T11:44:38;98122.47;;;22.16;58.15
35704;BME280;21820;51.112;13.762;2023-03-26T11:47:06;98115.94;;;22.12;58.09
35704;BME280;21820;51.112;13.762;2023-03-26T11:49:34;98107.22;;;22.05;58.07
35704;BME280;21820;51.112;13.762;2023-03-26T11:52:01;98108.91;;;21.98;58.79
35704;BME280;21820;51.112;13.762;2023-03-26T11:54:28;98104.34;;;21.91;58.76
35704;BME280;21820;51.112;13.762;2023-03-26T11:57:01;98106.72;;;21.86;59.26
35704;BME280;21820;51.112;13.762;2023-03-26T11:59:31;98109.06;;;21.81;59.35
35704;BME280;21820;51.112;13.762;2023-03-26T12:04:35;98122.00;;;21.75;59.86
35704;BME280;21820;51.112;13.762;2023-03-26T12:07:12;98106.44;;;21.73;59.79
35704;BME280;21820;51.112;13.762;2023-03-26T12:09:54;98105.31;;;21.76;60.12
35704;BME280;21820;51.112;13.762;2023-03-26T12:12:21;98105.47;;;21.74;60.20
35704;BME280;21820;51.112;13.762;2023-03-26T12:14:49;98080.91;;;21.61;60.94
35704;BME280;21820;51.112;13.762;2023-03-26T12:17:26;98090.16;;;21.71;59.79
35704;BME280;21820;51.112;13.762;2023-03-26T12:19:54;98095.69;;;21.76;60.85
35704;BME280;21820;51.112;13.762;2023-03-26T12:22:27;98100.94;;;21.76;61.12
35704;BME280;21820;51.112;13.762;2023-03-26T12:25:02;98097.44;;;21.76;61.96
35704;BME280;21820;51.112;13.762;2023-03-26T12:27:28;98102.88;;;21.74;61.09
35704;BME280;21820;51.112;13.762;2023-03-26T12:29:58;98097.31;;;21.77;60.37
35704;BME280;21820;51.112;13.762;2023-03-26T12:32:37;98103.56;;;21.68;59.88
35704;BME280;21820;51.112;13.762;2023-03-26T12:35:05;98097.00;;;21.72;59.47
35704;BME280;21820;51.112;13.762;2023-03-26T12:37:39;98091.72;;;21.80;59.74
35704;BME280;21820;51.112;13.762;2023-03-26T12:42:53;98089.78;;;22.12;58.53
35704;BME280;21820;51.112;13.762;2023-03-26T12:45:22;98072.09;;;22.14;58.37
35704;BME280;21820;51.112;13.762;2023-03-26T12:47:50;98095.03;;;22.41;57.44
35704;BME280;21820;51.112;13.762;2023-03-26T12:50:16;98087.91;;;22.49;57.35
35704;BME280;21820;51.112;13.762;2023-03-26T12:55:43;98066.88;;;22.43;57.17
35704;BME280;21820;51.112;13.762;2023-03-26T12:58:20;98070.84;;;22.39;57.28
35704;BME280;21820;51.112;13.762;2023-03-26T13:03:37;98080.31;;;22.40;57.67
35704;BME280;21820;51.112;13.762;2023-03-26T13:06:23;98086.47;;;22.32;57.52
35704;BME280;21820;51.112;13.762;2023-03-26T13:19:41;98064.13;;;21.92;58.63
35704;BME280;21820;51.112;13.762;2023-03-26T13:35:02;98047.66;;;21.69;59.96
35704;BME280;21820;51.112;13.762;2023-03-26T13:37:34;98037.19;;;21.69;60.54
35704;BME280;21820;51.112;13.762;2023-03-26T13:48:29;98033.06;;;21.75;61.63
35704;BME280;21820;51.112;13.762;2023-03-26T13:51:09;98026.38;;;21.72;61.10
35704;BME280;21820;51.112;13.762;2023-03-26T13:53:42;98026.38;;;21.72;60.02
35704;BME280;21820;51.112;13.762;2023-03-26T13:56:11;98029.16;;;21.71;61.63
35704;BME280;21820;51.112;13.762;2023-03-26T13:58:43;98020.31;;;21.72;61.84
35704;BME280;21820;51.112;13.762;2023-03-26T14:06:51;98025.72;;;21.70;60.00
35704;BME280;21820;51.112;13.762;2023-03-26T14:14:26;98021.72;;;22.12;58.51
35704;BME280;21820;51.112;13.762;2023-03-26T14:17:03;98016.41;;;22.34;57.33
35704;BME280;21820;51.112;13.762;2023-03-26T14:19:44;98001.78;;;22.25;56.27
35704;BME280;21820;51.112;13.762;2023-03-26T14:22:26;98027.31;;;22.38;54.98
35704;BME280;21820;51.112;13.762;2023-03-26T14:25:12;98017.81;;;22.37;54.78
35704;BME280;21820;51.112;13.762;2023-03-26T14:30:51;98008.53;;;22.20;54.77
35704;BME280;21820;51.112;13.762;2023-03-26T14:35:56;98034.28;;;22.16;55.48
35704;BME280;21820;51.112;13.762;2023-03-26T14:41:16;98042.56;;;22.05;55.76
35704;BME280;21820;51.112;13.762;2023-03-26T14:54:09;98047.94;;;21.74;56.87
35704;BME280;21820;51.112;13.762;2023-03-26T14:59:22;98040.78;;;21.68;57.13
35704;BME280;21820;51.112;13.762;2023-03-26T15:17:09;98029.59;;;21.60;57.51
35704;BME280;21820;51.112;13.762;2023-03-26T15:19:52;98026.16;;;21.59;56.87
35704;BME280;21820;51.112;13.762;2023-03-26T15:22:29;98030.97;;;21.70;57.40
35704;BME280;21820;51.112;13.762;2023-03-26T15:25:10;98034.91;;;21.89;57.06
35704;BME280;21820;51.112;13.762;2023-03-26T15:27:48;98037.78;;;22.09;56.34
35704;BME280;21820;51.112;13.762;2023-03-26T15:38:22;98032.00;;;22.57;55.20
35704;BME280;21820;51.112;13.762;2023-03-26T15:46:26;98033.06;;;22.48;55.62
35704;BME280;21820;51.112;13.762;2023-03-26T15:51:52;98032.56;;;22.38;56.15
35704;BME280;21820;51.112;13.762;2023-03-26T15:54:29;98030.00;;;22.30;56.10
35704;BME280;21820;51.112;13.762;2023-03-26T16:07:10;98032.28;;;22.04;56.89
35704;BME280;21820;51.112;13.762;2023-03-26T16:10:21;98025.72;;;22.08;56.94
35704;BME280;21820;51.112;13.762;2023-03-26T16:12:36;98032.56;;;22.09;57.15
35704;BME280;21820;51.112;13.762;2023-03-26T16:15:13;98036.19;;;22.08;56.96
35704;BME280;21820;51.112;13.762;2023-03-26T16:18:30;98030.84;;;22.01;57.73
35704;BME280;21820;51.112;13.762;2023-03-26T16:20:36;98040.41;;;21.94;57.75
35704;BME280;21820;51.112;13.762;2023-03-26T16:23:17;98033.09;;;21.89;57.31
35704;BME280;21820;51.112;13.762;2023-03-26T16:25:56;98036.09;;;21.86;57.69
35704;BME280;21820;51.112;13.762;2023-03-26T16:28:32;98030.91;;;21.78;57.66
35704;BME280;21820;51.112;13.762;2023-03-26T16:31:17;98033.84;;;21.75;58.24
35704;BME280;21820;51.112;13.762;2023-03-26T16:41:28;98041.78;;;21.67;59.10
35704;BME280;21820;51.112;13.762;2023-03-26T16:44:01;98035.41;;;21.70;58.80
35704;BME280;21820;51.112;13.762;2023-03-26T16:46:41;98039.16;;;21.67;58.20
35704;BME280;21820;51.112;13.762;2023-03-26T16:49:15;98026.81;;;21.76;58.52
35704;BME280;21820;51.112;13.762;2023-03-26T17:02:53;98008.44;;;22.42;55.94
35704;BME280;21820;51.112;13.762;2023-03-26T17:04:54;98037.31;;;22.63;56.05
35704;BME280;21820;51.112;13.762;2023-03-26T17:07:28;98025.75;;;22.58;55.41
35704;BME280;21820;51.112;13.762;2023-03-26T17:10:09;98034.63;;;22.57;55.63
35704;BME280;21820;51.112;13.762;2023-03-26T17:12:47;98020.53;;;22.43;55.55
35704;BME280;21820;51.112;13.762;2023-03-26T17:18:08;98043.53;;;22.48;56.47
35704;BME280;21820;51.112;13.762;2023-03-26T17:28:39;98049.16;;;22.16;56.93
35704;BME280;21820;51.112;13.762;2023-03-26T17:33:35;98037.97;;;21.92;58.04
35704;BME280;21820;51.112;13.762;2023-03-26T17:41:06;98052.75;;;21.85;57.78
35704;BME280;21820;51.112;13.762;2023-03-26T17:43:37;98055.09;;;21.80;58.63
35704;BME280;21820;51.112;13.762;2023-03-26T17:51:30;98052.53;;;21.72;58.75
35704;BME280;21820;51.112;13.762;2023-03-26T17:54:01;98060.19;;;21.74;58.87
35704;BME280;21820;51.112;13.762;2023-03-26T17:56:30;98056.47;;;21.68;58.75
35704;BME280;21820;51.112;13.762;2023-03-26T17:58:56;98056.94;;;21.72;58.72
35704;BME280;21820;51.112;13.762;2023-03-26T18:03:52;98056.09;;;21.94;58.47
35704;BME280;21820;51.112;13.762;2023-03-26T18:16:41;98062.84;;;22.76;56.05
35704;BME280;21820;51.112;13.762;2023-03-26T18:19:10;98069.00;;;22.83;55.72
35704;BME280;21820;51.112;13.762;2023-03-26T18:21:42;98065.31;;;22.77;55.77
35704;BME280;21820;51.112;13.762;2023-03-26T18:24:18;98067.31;;;22.75;55.90
35704;BME280;21820;51.112;13.762;2023-03-26T18:26:48;98060.25;;;22.61;56.01